SLSB/SRJ METAR and TAF weather

Enter ICAO airport designator
Station Type Date Time Source
SLSB METAR 2018/12/06 16:00 UTC NOAA

SLSB 061600Z 29008KT 9999 BKN015 OVC070 27/25 Q1012


Station Type Date Time Source
SLSB Decoded METAR 2018/12/06 16:00 UTC NOAA

San Borja, Bolivia (SLSB) 14-52S 066-52W
Dec 06, 2018 - 11:00 AM EST / 2018.12.06 1600 UTC
Wind: from the WNW (290 degrees) at 9 MPH (8 KT):0
Visibility: greater than 7 mile(s):0
Sky conditions: overcast
Temperature: 80 F (27 C)
Dew Point: 77 F (25 C)
Relative Humidity: 88%
Pressure (altimeter): 29.88 in. Hg (1012 hPa)
ob: SLSB 061600Z 29008KT 9999 BKN015 OVC070 27/25 Q1012
cycle: 16

Station Type Date Time Source
SLSB TAF UTC NOAA

Error!


Example: see airport list